createdAt,value
2023-03-03T00:00:33.980Z,13.13
2023-03-03T00:03:05.677Z,11.32
2023-03-03T00:05:33.320Z,12.30
2023-03-03T00:08:00.784Z,11.10
2023-03-03T00:10:27.585Z,13.77
2023-03-03T00:12:54.184Z,12.95
2023-03-03T00:15:24.004Z,12.45
2023-03-03T00:17:51.449Z,12.40
2023-03-03T00:20:35.874Z,12.73
2023-03-03T00:23:35.291Z,11.85
2023-03-03T00:26:03.050Z,11.32
2023-03-03T00:28:32.312Z,13.85
2023-03-03T00:31:01.702Z,12.13
2023-03-03T00:33:31.699Z,11.57
2023-03-03T00:36:22.138Z,13.02
2023-03-03T00:38:49.212Z,12.57
2023-03-03T00:41:23.762Z,15.85
2023-03-03T00:43:51.783Z,14.65
2023-03-03T00:46:20.127Z,15.82
2023-03-03T00:48:47.499Z,13.48
2023-03-03T00:51:22.880Z,13.77
2023-03-03T00:53:50.145Z,13.57
2023-03-03T00:56:16.718Z,14.00
2023-03-03T00:58:43.269Z,15.00
2023-03-03T01:01:09.942Z,14.70
2023-03-03T01:03:36.674Z,14.48
2023-03-03T01:06:03.277Z,14.85
2023-03-03T01:08:29.832Z,17.00
2023-03-03T01:10:59.907Z,15.30
2023-03-03T01:13:29.986Z,15.48
2023-03-03T01:15:56.545Z,15.70
2023-03-03T01:18:23.136Z,16.15
2023-03-03T01:20:49.638Z,17.00
2023-03-03T01:23:16.125Z,16.17
2023-03-03T01:25:42.728Z,20.77
2023-03-03T01:28:10.058Z,16.70
2023-03-03T01:30:37.154Z,20.25
2023-03-03T01:33:04.101Z,19.77
2023-03-03T01:35:30.691Z,21.17
2023-03-03T01:37:57.831Z,16.92
2023-03-03T01:40:28.238Z,18.95
2023-03-03T01:45:30.157Z,17.17
2023-03-03T01:48:02.000Z,20.48
2023-03-03T01:50:49.753Z,21.00
2023-03-03T01:53:20.637Z,20.05
2023-03-03T01:55:50.107Z,22.40
2023-03-03T01:58:29.463Z,20.63
2023-03-03T02:01:02.592Z,22.52
2023-03-03T02:03:30.438Z,25.58
2023-03-03T02:06:02.676Z,26.33
2023-03-03T02:08:39.322Z,25.88
2023-03-03T02:11:06.692Z,22.67
2023-03-03T02:13:33.220Z,24.30
2023-03-03T02:16:00.025Z,24.35
2023-03-03T02:18:27.252Z,24.83
2023-03-03T02:21:26.270Z,22.10
2023-03-03T02:23:58.894Z,25.42
2023-03-03T02:26:28.574Z,26.15
2023-03-03T02:28:55.283Z,27.15
2023-03-03T02:31:26.040Z,27.42
2023-03-03T02:33:53.904Z,25.83
2023-03-03T02:36:21.993Z,28.30
2023-03-03T02:38:57.368Z,28.25
2023-03-03T02:41:35.841Z,27.67
2023-03-03T02:44:09.039Z,27.70
2023-03-03T02:46:44.774Z,28.85
2023-03-03T02:49:14.042Z,29.65
2023-03-03T02:51:41.160Z,27.42
2023-03-03T02:54:09.172Z,29.33
2023-03-03T02:56:36.420Z,28.05
2023-03-03T02:59:04.322Z,26.08
2023-03-03T03:01:31.089Z,26.73
2023-03-03T03:03:58.619Z,30.00
2023-03-03T03:06:25.333Z,29.33
2023-03-03T03:08:51.796Z,28.73
2023-03-03T03:11:18.302Z,26.98
2023-03-03T03:13:44.832Z,28.27
2023-03-03T03:16:11.385Z,30.75
2023-03-03T03:18:37.976Z,29.27
2023-03-03T03:21:12.663Z,29.95
2023-03-03T03:23:40.187Z,30.60
2023-03-03T03:26:07.534Z,29.00
2023-03-03T03:28:34.275Z,30.23
2023-03-03T03:31:01.180Z,28.95
2023-03-03T03:33:27.807Z,27.95
2023-03-03T03:35:54.946Z,23.88
2023-03-03T03:38:22.901Z,31.08
2023-03-03T03:40:49.428Z,30.40
2023-03-03T03:43:15.906Z,26.48
2023-03-03T03:45:43.474Z,27.90
2023-03-03T03:48:10.172Z,28.70
2023-03-03T03:50:37.002Z,29.60
2023-03-03T03:53:03.879Z,27.70
2023-03-03T03:55:30.595Z,31.35
2023-03-03T03:57:57.713Z,26.10
2023-03-03T04:00:24.909Z,29.00
2023-03-03T04:02:51.802Z,29.73
2023-03-03T04:05:18.633Z,29.98
2023-03-03T04:07:45.586Z,30.05
2023-03-03T04:10:12.525Z,26.77
2023-03-03T04:12:39.005Z,25.75
2023-03-03T04:15:08.318Z,24.85
2023-03-03T04:17:35.383Z,27.38
2023-03-03T04:20:02.066Z,22.50
2023-03-03T04:22:28.811Z,26.58
2023-03-03T04:24:55.383Z,27.08
2023-03-03T04:27:21.899Z,25.98
2023-03-03T04:29:48.489Z,24.67
2023-03-03T04:32:15.019Z,25.98
2023-03-03T04:34:41.666Z,25.42
2023-03-03T04:37:08.195Z,22.90
2023-03-03T04:39:34.723Z,25.45
2023-03-03T04:42:01.225Z,25.48
2023-03-03T04:44:27.769Z,22.08
2023-03-03T04:46:54.284Z,21.02
2023-03-03T04:49:20.760Z,24.60
2023-03-03T04:51:47.263Z,23.98
2023-03-03T04:54:13.813Z,21.55
2023-03-03T04:56:40.495Z,26.08
2023-03-03T04:59:07.064Z,26.35
2023-03-03T05:01:33.682Z,27.63
2023-03-03T05:04:00.271Z,25.50
2023-03-03T05:06:26.804Z,27.92
2023-03-03T05:08:53.307Z,26.02
2023-03-03T05:11:19.983Z,25.15
2023-03-03T05:13:46.557Z,24.40
2023-03-03T05:16:14.258Z,23.83
2023-03-03T05:18:40.773Z,26.27
2023-03-03T05:21:07.782Z,25.30
2023-03-03T05:23:34.469Z,24.00
2023-03-03T05:26:01.008Z,24.70
2023-03-03T05:28:27.571Z,26.50
2023-03-03T05:30:54.096Z,23.35
2023-03-03T05:33:20.624Z,26.33
2023-03-03T05:35:47.178Z,20.52
2023-03-03T05:38:13.787Z,23.13
2023-03-03T05:40:40.409Z,26.80
2023-03-03T05:43:06.934Z,26.48
2023-03-03T05:45:33.476Z,24.05
2023-03-03T05:48:00.014Z,24.23
2023-03-03T05:50:26.556Z,25.38
2023-03-03T05:52:53.464Z,25.88
2023-03-03T05:55:20.048Z,23.98
2023-03-03T05:57:46.600Z,23.88
2023-03-03T06:00:14.108Z,25.55
2023-03-03T06:02:41.656Z,26.27
2023-03-03T06:05:09.128Z,25.52
2023-03-03T06:07:35.943Z,27.13
2023-03-03T06:10:03.352Z,24.23
2023-03-03T06:12:29.875Z,23.50
2023-03-03T06:14:56.443Z,23.25
2023-03-03T06:17:23.033Z,23.52
2023-03-03T06:19:49.548Z,24.40
2023-03-03T06:22:16.053Z,24.17
2023-03-03T06:24:42.664Z,25.50
2023-03-03T06:27:09.942Z,25.73
2023-03-03T06:29:36.472Z,25.85
2023-03-03T06:32:03.218Z,23.50
2023-03-03T06:34:29.900Z,22.90
2023-03-03T06:36:56.470Z,24.95
2023-03-03T06:39:23.057Z,25.92
2023-03-03T06:41:49.551Z,27.85
2023-03-03T06:44:16.088Z,27.48
2023-03-03T06:46:42.676Z,25.42
2023-03-03T06:49:09.208Z,23.45
2023-03-03T06:51:38.340Z,22.77
2023-03-03T06:54:20.307Z,22.52
2023-03-03T06:56:49.359Z,24.95
2023-03-03T06:59:21.167Z,24.05
2023-03-03T07:01:49.361Z,25.10
2023-03-03T07:04:33.625Z,25.15
2023-03-03T07:07:19.100Z,27.50
2023-03-03T07:09:47.636Z,24.13
2023-03-03T07:12:21.401Z,29.27
2023-03-03T07:14:51.932Z,27.15
2023-03-03T07:17:20.280Z,26.05
2023-03-03T07:19:47.716Z,23.58
2023-03-03T07:22:14.186Z,23.95
2023-03-03T07:24:41.914Z,23.55
2023-03-03T07:27:14.711Z,21.35
2023-03-03T07:29:42.097Z,24.33
2023-03-03T07:32:39.767Z,24.90
2023-03-03T07:35:37.886Z,25.45
2023-03-03T07:38:37.284Z,24.45
2023-03-03T07:41:10.005Z,21.27
2023-03-03T07:43:39.709Z,23.40
2023-03-03T07:46:25.272Z,21.77
2023-03-03T07:48:52.703Z,23.23
2023-03-03T07:51:28.405Z,24.42
2023-03-03T07:54:27.496Z,24.27
2023-03-03T07:57:11.396Z,23.13
2023-03-03T07:59:41.630Z,21.98
2023-03-03T08:02:21.834Z,24.33
2023-03-03T08:04:49.380Z,21.08
2023-03-03T08:07:21.681Z,22.65
2023-03-03T08:09:59.617Z,23.05
2023-03-03T08:12:42.311Z,21.73
2023-03-03T08:15:25.644Z,20.92
2023-03-03T08:17:54.258Z,22.25
2023-03-03T08:20:42.085Z,21.67
2023-03-03T08:23:09.996Z,20.95
2023-03-03T08:25:36.712Z,22.38
2023-03-03T08:28:03.432Z,23.58
2023-03-03T08:30:30.024Z,22.95
2023-03-03T08:32:56.612Z,23.55
2023-03-03T08:35:23.172Z,24.75
2023-03-03T08:37:50.821Z,21.67
2023-03-03T08:40:17.326Z,20.48
2023-03-03T08:42:44.152Z,20.10
2023-03-03T08:45:10.899Z,21.73
2023-03-03T08:47:38.679Z,20.80
2023-03-03T08:50:06.192Z,22.27
2023-03-03T08:52:32.746Z,20.02
2023-03-03T08:54:59.455Z,19.52
2023-03-03T08:57:26.097Z,22.30
2023-03-03T08:59:52.654Z,22.13
2023-03-03T09:02:19.161Z,20.55
2023-03-03T09:04:45.834Z,22.55
2023-03-03T09:07:12.537Z,21.90
2023-03-03T09:09:39.291Z,24.38
2023-03-03T09:12:17.042Z,20.75
2023-03-03T09:14:43.761Z,19.83
2023-03-03T09:17:29.641Z,21.83
2023-03-03T09:20:02.013Z,22.98
2023-03-03T09:22:28.970Z,20.10
2023-03-03T09:24:58.819Z,23.30
2023-03-03T09:27:35.346Z,24.77
2023-03-03T09:30:12.110Z,22.00
2023-03-03T09:32:38.738Z,19.60
2023-03-03T09:35:37.379Z,21.45
2023-03-03T09:38:26.318Z,22.95
2023-03-03T09:41:16.850Z,23.25
2023-03-03T09:44:02.325Z,20.00
2023-03-03T09:47:05.776Z,21.75
2023-03-03T09:50:10.847Z,21.67
2023-03-03T09:53:09.927Z,21.45
2023-03-03T09:55:43.331Z,20.40
2023-03-03T09:58:27.981Z,19.52
2023-03-03T10:01:19.002Z,23.30
2023-03-03T10:04:06.268Z,19.42
2023-03-03T10:06:57.496Z,24.13
2023-03-03T10:10:01.549Z,21.23
2023-03-03T10:12:52.814Z,22.33
2023-03-03T10:15:31.639Z,21.67
2023-03-03T10:18:29.847Z,19.35
2023-03-03T10:21:11.379Z,24.88
2023-03-03T10:23:47.041Z,23.48
2023-03-03T10:26:42.201Z,23.75
2023-03-03T10:29:34.568Z,21.50
2023-03-03T10:32:12.764Z,23.13
2023-03-03T10:34:58.872Z,24.02
2023-03-03T10:37:57.416Z,24.52
2023-03-03T10:40:42.185Z,23.85
2023-03-03T10:43:29.852Z,23.33
2023-03-03T10:46:22.088Z,23.70
2023-03-03T10:49:13.382Z,23.77
2023-03-03T10:51:49.630Z,21.30
2023-03-03T10:54:43.566Z,22.58
2023-03-03T11:00:14.659Z,21.35
2023-03-03T11:03:02.126Z,22.63
2023-03-03T11:06:00.029Z,22.58
2023-03-03T11:08:26.741Z,20.13
2023-03-03T11:11:24.580Z,22.92
2023-03-03T11:14:03.790Z,21.85
2023-03-03T11:16:42.300Z,22.67
2023-03-03T11:19:14.579Z,21.65
2023-03-03T11:21:53.321Z,25.50
2023-03-03T11:24:32.838Z,22.60
2023-03-03T11:27:19.611Z,23.05
2023-03-03T11:30:16.548Z,24.65
2023-03-03T11:33:03.308Z,23.65
2023-03-03T11:35:36.313Z,22.27
2023-03-03T11:38:22.837Z,23.45
2023-03-03T11:40:56.895Z,22.52
2023-03-03T11:43:40.132Z,21.48
2023-03-03T11:46:14.511Z,23.30
2023-03-03T11:48:53.445Z,24.35
2023-03-03T11:51:25.493Z,25.20
2023-03-03T11:54:01.054Z,22.75
2023-03-03T11:56:45.693Z,22.90
2023-03-03T11:59:12.207Z,24.58
2023-03-03T12:02:14.420Z,21.65
2023-03-03T12:04:43.469Z,26.17
2023-03-03T12:07:37.503Z,25.60
2023-03-03T12:10:24.345Z,25.20
2023-03-03T12:13:05.688Z,24.35
2023-03-03T12:16:04.624Z,23.70
2023-03-03T12:18:49.402Z,22.05
2023-03-03T12:24:50.878Z,24.42
2023-03-03T12:27:43.285Z,26.50
2023-03-03T12:30:25.445Z,26.55
2023-03-03T12:33:08.696Z,22.88
2023-03-03T12:35:50.612Z,25.35
2023-03-03T12:38:31.476Z,22.95
2023-03-03T12:41:12.186Z,26.13
2023-03-03T12:43:56.219Z,25.25
2023-03-03T12:46:35.476Z,24.27
2023-03-03T12:49:02.202Z,24.38
2023-03-03T12:51:48.078Z,22.92
2023-03-03T12:54:20.205Z,24.25
2023-03-03T12:57:02.076Z,24.40
2023-03-03T13:00:06.761Z,25.13
2023-03-03T13:02:59.781Z,24.13
2023-03-03T13:05:45.814Z,25.00
2023-03-03T13:08:30.148Z,22.92
2023-03-03T13:11:18.857Z,25.45
2023-03-03T13:14:10.265Z,25.42
2023-03-03T13:16:48.080Z,22.80
2023-03-03T13:19:40.286Z,25.40
2023-03-03T13:22:17.922Z,24.48
2023-03-03T13:25:13.493Z,24.20
2023-03-03T13:27:43.816Z,26.60
2023-03-03T13:30:24.409Z,25.73
2023-03-03T13:33:16.378Z,25.27
2023-03-03T13:35:58.216Z,24.75
2023-03-03T13:38:46.681Z,22.58
2023-03-03T13:41:31.315Z,24.90
2023-03-03T13:44:15.148Z,22.73
2023-03-03T13:46:56.752Z,24.02
2023-03-03T13:49:47.871Z,19.95
2023-03-03T13:52:21.140Z,19.17
2023-03-03T13:55:07.290Z,19.83
2023-03-03T13:58:01.369Z,17.85
2023-03-03T14:00:50.522Z,17.23
2023-03-03T14:03:31.978Z,18.30
2023-03-03T14:06:03.638Z,17.90
2023-03-03T14:08:39.056Z,19.17
2023-03-03T14:11:29.512Z,22.48
2023-03-03T14:14:15.949Z,18.23
2023-03-03T14:16:53.496Z,14.80
2023-03-03T14:19:42.898Z,13.30
2023-03-03T14:22:33.277Z,13.95
2023-03-03T14:25:07.661Z,10.30
2023-03-03T14:27:36.569Z,10.48
2023-03-03T14:30:22.140Z,10.02
2023-03-03T14:33:02.629Z,11.45
2023-03-03T14:35:37.321Z,14.07
2023-03-03T14:38:17.002Z,12.77
2023-03-03T14:40:45.762Z,13.25
2023-03-03T14:43:39.983Z,13.80
2023-03-03T14:46:27.938Z,10.82
2023-03-03T14:48:57.940Z,12.40
2023-03-03T14:51:44.206Z,14.20
2023-03-03T14:54:37.116Z,16.08
2023-03-03T14:57:17.954Z,17.23
2023-03-03T14:59:59.572Z,20.80
2023-03-03T15:02:59.233Z,19.58
2023-03-03T15:05:28.671Z,18.08
2023-03-03T15:07:58.184Z,20.65
2023-03-03T15:10:34.029Z,23.33
2023-03-03T15:13:19.142Z,20.08
2023-03-03T15:15:59.303Z,21.33
2023-03-03T15:18:27.139Z,23.10
2023-03-03T15:21:10.275Z,22.27
2023-03-03T15:23:53.968Z,22.58
2023-03-03T15:26:37.476Z,21.20
2023-03-03T15:29:16.469Z,23.30
2023-03-03T15:32:13.546Z,21.90
2023-03-03T15:34:47.303Z,22.88
2023-03-03T15:37:39.721Z,22.90
2023-03-03T15:40:06.315Z,21.15
2023-03-03T15:42:37.638Z,22.55
2023-03-03T15:45:31.696Z,22.08
2023-03-03T15:48:17.245Z,21.08
2023-03-03T15:50:55.960Z,21.92
2023-03-03T15:53:45.967Z,20.27
2023-03-03T15:56:17.059Z,22.08
2023-03-03T15:58:55.304Z,21.02
2023-03-03T16:01:32.892Z,20.75
2023-03-03T16:04:22.375Z,20.90
2023-03-03T16:07:06.136Z,18.40
2023-03-03T16:09:43.159Z,20.85
2023-03-03T16:12:24.912Z,19.42
2023-03-03T16:15:03.727Z,19.52
2023-03-03T16:17:54.082Z,21.75
2023-03-03T16:20:42.583Z,20.38
2023-03-03T16:23:34.271Z,20.73
2023-03-03T16:26:26.037Z,21.45
2023-03-03T16:29:17.456Z,20.55
2023-03-03T16:32:11.645Z,20.35
2023-03-03T16:34:59.883Z,20.90
2023-03-03T16:37:37.827Z,18.30
2023-03-03T16:40:47.517Z,21.55
2023-03-03T16:43:37.577Z,18.50
2023-03-03T16:46:28.473Z,20.95
2023-03-03T16:49:19.062Z,20.90
2023-03-03T16:51:49.279Z,17.50
2023-03-03T16:57:22.338Z,17.52
2023-03-03T17:00:09.060Z,19.63
2023-03-03T17:02:53.708Z,18.23
2023-03-03T17:05:36.153Z,21.38
2023-03-03T17:08:21.637Z,19.30
2023-03-03T17:10:53.315Z,19.90
2023-03-03T17:13:34.679Z,18.45
2023-03-03T17:16:13.284Z,19.23
2023-03-03T17:19:17.708Z,20.27
2023-03-03T17:22:31.941Z,20.50
2023-03-03T17:25:13.135Z,21.05
2023-03-03T17:27:42.651Z,20.60
2023-03-03T17:30:22.844Z,21.48
2023-03-03T17:33:01.830Z,21.17
2023-03-03T17:35:47.474Z,20.75
2023-03-03T17:38:26.005Z,20.27
2023-03-03T17:40:57.224Z,21.98
2023-03-03T17:43:31.371Z,19.83
2023-03-03T17:46:02.579Z,22.90
2023-03-03T17:48:41.779Z,21.17
2023-03-03T17:51:31.458Z,20.30
2023-03-03T17:54:33.957Z,20.55
2023-03-03T17:57:38.259Z,18.77
2023-03-03T18:00:07.688Z,21.00
2023-03-03T18:02:43.072Z,17.27
2023-03-03T18:05:28.409Z,19.83
2023-03-03T18:08:22.591Z,20.25
2023-03-03T18:11:22.704Z,19.52
2023-03-03T18:14:08.396Z,16.00
2023-03-03T18:17:02.655Z,19.50
2023-03-03T18:19:58.239Z,18.40
2023-03-03T18:22:41.275Z,18.98
2023-03-03T18:25:20.948Z,19.08
2023-03-03T18:28:08.299Z,16.05
2023-03-03T18:30:49.830Z,16.40
2023-03-03T18:33:16.629Z,18.33
2023-03-03T18:35:47.897Z,19.05
2023-03-03T18:38:28.414Z,18.75
2023-03-03T18:41:01.165Z,16.73
2023-03-03T18:43:42.976Z,16.95
2023-03-03T18:46:35.692Z,16.50
2023-03-03T18:49:05.108Z,17.30
2023-03-03T18:51:34.629Z,18.90
2023-03-03T18:54:20.039Z,18.98
2023-03-03T18:56:54.034Z,16.60
2023-03-03T18:59:35.776Z,16.23
2023-03-03T19:02:42.805Z,18.85
2023-03-03T19:05:15.335Z,16.88
2023-03-03T19:07:41.807Z,16.80
2023-03-03T19:10:43.132Z,17.73
2023-03-03T19:13:38.364Z,16.88
2023-03-03T19:16:28.981Z,14.15
2023-03-03T19:19:01.967Z,17.42
2023-03-03T19:21:32.650Z,25.13
2023-03-03T19:24:02.398Z,18.95
2023-03-03T19:26:47.090Z,16.83
2023-03-03T19:29:34.762Z,18.10
2023-03-03T19:32:25.388Z,15.52
2023-03-03T19:35:08.656Z,16.63
2023-03-03T19:37:53.443Z,14.98
2023-03-03T19:40:41.242Z,16.52
2023-03-03T19:43:41.873Z,15.07
2023-03-03T19:46:28.752Z,12.45
2023-03-03T19:49:07.100Z,13.82
2023-03-03T19:51:52.270Z,13.00
2023-03-03T19:54:45.008Z,15.50
2023-03-03T19:57:34.432Z,11.40
2023-03-03T20:00:23.253Z,13.60
2023-03-03T20:03:08.535Z,14.43
2023-03-03T20:05:39.831Z,12.75
2023-03-03T20:08:33.701Z,13.35
2023-03-03T20:11:30.848Z,15.10
2023-03-03T20:14:21.492Z,13.23
2023-03-03T20:16:51.619Z,12.75
2023-03-03T20:19:37.206Z,13.07
2023-03-03T20:22:30.884Z,14.30
2023-03-03T20:25:51.215Z,13.93
2023-03-03T20:28:29.576Z,14.10
2023-03-03T20:31:16.953Z,13.52
2023-03-03T20:34:00.827Z,14.63
2023-03-03T20:36:55.796Z,14.07
2023-03-03T20:39:52.354Z,14.70
2023-03-03T20:42:38.182Z,16.27
2023-03-03T20:45:26.859Z,13.45
2023-03-03T20:48:12.196Z,15.20
2023-03-03T20:50:56.642Z,13.95
2023-03-03T20:53:58.441Z,14.43
2023-03-03T20:56:40.716Z,14.23
2023-03-03T20:59:13.599Z,15.15
2023-03-03T21:01:50.910Z,15.07
2023-03-03T21:04:28.958Z,14.60
2023-03-03T21:06:56.414Z,15.35
2023-03-03T21:09:38.028Z,14.57
2023-03-03T21:12:28.402Z,13.77
2023-03-03T21:15:03.921Z,14.85
2023-03-03T21:17:31.188Z,14.15
2023-03-03T21:20:23.154Z,14.82
2023-03-03T21:22:50.072Z,14.18
2023-03-03T21:25:41.688Z,14.73
2023-03-03T21:28:21.843Z,13.60
2023-03-03T21:31:11.477Z,14.10
2023-03-03T21:33:41.835Z,14.95
2023-03-03T21:36:10.426Z,14.77
2023-03-03T21:38:37.992Z,16.90
2023-03-03T21:41:05.710Z,12.18
2023-03-03T21:43:40.625Z,13.57
2023-03-03T21:46:07.488Z,12.60
2023-03-03T21:48:34.277Z,13.90
2023-03-03T21:51:01.417Z,14.90
2023-03-03T21:53:28.096Z,14.00
2023-03-03T21:55:56.201Z,14.50
2023-03-03T21:58:23.528Z,13.88
2023-03-03T22:00:50.358Z,15.00
2023-03-03T22:03:17.005Z,14.38
2023-03-03T22:05:43.551Z,14.00
2023-03-03T22:08:10.149Z,15.18
2023-03-03T22:10:36.632Z,13.27
2023-03-03T22:13:03.144Z,14.35
2023-03-03T22:15:29.756Z,13.93
2023-03-03T22:17:56.356Z,13.45
2023-03-03T22:20:22.903Z,14.40
2023-03-03T22:22:49.429Z,14.85
2023-03-03T22:25:16.049Z,14.13
2023-03-03T22:27:42.558Z,13.25
2023-03-03T22:30:10.032Z,12.98
2023-03-03T22:32:36.521Z,14.27
2023-03-03T22:35:03.236Z,14.18
2023-03-03T22:37:29.788Z,12.07
2023-03-03T22:39:56.284Z,12.95
2023-03-03T22:42:22.830Z,13.25
2023-03-03T22:44:49.348Z,14.38
2023-03-03T22:47:15.873Z,13.80
2023-03-03T22:49:42.380Z,13.77
2023-03-03T22:52:08.874Z,14.38
2023-03-03T22:54:35.347Z,12.68
2023-03-03T22:57:01.841Z,14.43
2023-03-03T22:59:28.330Z,13.25
2023-03-03T23:01:54.834Z,14.57
2023-03-03T23:04:21.390Z,13.48
2023-03-03T23:06:47.860Z,12.52
2023-03-03T23:09:14.376Z,13.23
2023-03-03T23:11:40.927Z,12.70
2023-03-03T23:14:07.487Z,14.20
2023-03-03T23:16:33.961Z,12.80
2023-03-03T23:19:00.452Z,12.13
2023-03-03T23:21:26.926Z,13.88
2023-03-03T23:23:53.456Z,13.32
2023-03-03T23:26:19.995Z,11.90
2023-03-03T23:28:46.781Z,11.63
2023-03-03T23:31:13.490Z,12.88
2023-03-03T23:33:40.004Z,11.15
2023-03-03T23:36:06.948Z,10.80
2023-03-03T23:38:33.445Z,13.18
2023-03-03T23:40:59.944Z,12.57
2023-03-03T23:43:26.455Z,14.40
2023-03-03T23:45:52.961Z,12.25
2023-03-03T23:48:19.457Z,12.98
2023-03-03T23:50:46.196Z,12.18
2023-03-03T23:53:12.710Z,13.40
2023-03-03T23:55:39.289Z,12.63
2023-03-03T23:58:05.840Z,11.43
